sensor_id;sensor_type;location;lat;lon;timestamp;pressure;altitude;pressure_sealevel;temperature;humidity
69524;BME280;56723;42.694;23.286;2022-11-28T07:04:13;95583.66;;;0.73;100.00
69524;BME280;56723;42.694;23.286;2022-11-28T07:06:40;95597.28;;;0.86;100.00
69524;BME280;56723;42.694;23.286;2022-11-28T07:09:10;95602.72;;;0.94;100.00
69524;BME280;56723;42.694;23.286;2022-11-28T07:11:40;95599.66;;;1.03;100.00
69524;BME280;56723;42.694;23.286;2022-11-28T07:14:06;95592.88;;;1.17;100.00
69524;BME280;56723;42.694;23.286;2022-11-28T07:16:33;95602.34;;;1.29;100.00
69524;BME280;56723;42.694;23.286;2022-11-28T07:19:01;95600.31;;;1.34;100.00
69524;BME280;56723;42.694;23.286;2022-11-28T07:21:28;95605.03;;;1.40;100.00
69524;BME280;56723;42.694;23.286;2022-11-28T07:23:57;95599.28;;;1.36;100.00
69524;BME280;56723;42.694;23.286;2022-11-28T07:26:24;95600.31;;;1.34;100.00
69524;BME280;56723;42.694;23.286;2022-11-28T07:28:51;95601.94;;;1.35;100.00
69524;BME280;56723;42.694;23.286;2022-11-28T07:31:22;95605.41;;;1.34;100.00
69524;BME280;56723;42.694;23.286;2022-11-28T07:33:54;95603.78;;;1.33;100.00
69524;BME280;56723;42.694;23.286;2022-11-28T07:36:25;95601.94;;;1.35;100.00
69524;BME280;56723;42.694;23.286;2022-11-28T07:56:59;95595.66;;;1.41;100.00
69524;BME280;56723;42.694;23.286;2022-11-28T07:59:41;95594.25;;;1.49;100.00
69524;BME280;56723;42.694;23.286;2022-11-28T08:02:10;95587.13;;;1.54;100.00
69524;BME280;56723;42.694;23.286;2022-11-28T08:04:37;95587.97;;;1.67;100.00
69524;BME280;56723;42.694;23.286;2022-11-28T08:07:12;95582.47;;;1.73;100.00
69524;BME280;56723;42.694;23.286;2022-11-28T08:09:39;95583.94;;;1.90;100.00
69524;BME280;56723;42.694;23.286;2022-11-28T08:12:06;95583.78;;;2.06;100.00
69524;BME280;56723;42.694;23.286;2022-11-28T08:14:33;95578.06;;;2.15;100.00
69524;BME280;56723;42.694;23.286;2022-11-28T08:17:00;95573.16;;;2.25;100.00
69524;BME280;56723;42.694;23.286;2022-11-28T08:19:27;95577.25;;;2.27;100.00
69524;BME280;56723;42.694;23.286;2022-11-28T08:22:00;95583.91;;;2.42;100.00
69524;BME280;56723;42.694;23.286;2022-11-28T08:24:27;95589.16;;;2.54;100.00
69524;BME280;56723;42.694;23.286;2022-11-28T08:26:54;95585.56;;;2.56;100.00
69524;BME280;56723;42.694;23.286;2022-11-28T08:29:21;95577.47;;;2.50;100.00
69524;BME280;56723;42.694;23.286;2022-11-28T08:31:48;95577.06;;;2.43;100.00
69524;BME280;56723;42.694;23.286;2022-11-28T08:34:15;95577.69;;;2.47;100.00
69524;BME280;56723;42.694;23.286;2022-11-28T08:36:42;95577.69;;;2.47;100.00
69524;BME280;56723;42.694;23.286;2022-11-28T08:39:10;95571.75;;;2.46;100.00
69524;BME280;56723;42.694;23.286;2022-11-28T08:41:54;95572.16;;;2.53;100.00
69524;BME280;56723;42.694;23.286;2022-11-28T08:44:28;95568.06;;;2.50;100.00
69524;BME280;56723;42.694;23.286;2022-11-28T08:46:57;95570.13;;;2.58;100.00
69524;BME280;56723;42.694;23.286;2022-11-28T08:49:24;95577.16;;;2.67;100.00
69524;BME280;56723;42.694;23.286;2022-11-28T08:51:51;95566.72;;;2.70;99.75
69524;BME280;56723;42.694;23.286;2022-11-28T08:54:20;95569.06;;;2.73;99.35
69524;BME280;56723;42.694;23.286;2022-11-28T08:56:47;95571.53;;;2.74;100.00
69524;BME280;56723;42.694;23.286;2022-11-28T08:59:14;95566.72;;;2.70;100.00
69524;BME280;56723;42.694;23.286;2022-11-28T09:01:41;95549.66;;;2.58;100.00
69524;BME280;56723;42.694;23.286;2022-11-28T09:04:08;95544.03;;;2.53;99.03
69524;BME280;56723;42.694;23.286;2022-11-28T09:06:37;95542.59;;;2.49;98.77
69524;BME280;56723;42.694;23.286;2022-11-28T09:09:05;95546.78;;;2.50;100.00
69524;BME280;56723;42.694;23.286;2022-11-28T09:11:32;95542.50;;;2.50;100.00
69524;BME280;56723;42.694;23.286;2022-11-28T09:13:59;95544.13;;;2.51;99.67
69524;BME280;56723;42.694;23.286;2022-11-28T09:16:26;95536.16;;;2.56;100.00
69524;BME280;56723;42.694;23.286;2022-11-28T09:18:53;95537.78;;;2.57;100.00
69524;BME280;56723;42.694;23.286;2022-11-28T09:21:20;95538.81;;;2.54;98.94
69524;BME280;56723;42.694;23.286;2022-11-28T09:23:47;95526.94;;;2.53;99.25
69524;BME280;56723;42.694;23.286;2022-11-28T09:26:19;95523.66;;;2.51;100.00
69524;BME280;56723;42.694;23.286;2022-11-28T09:28:46;95527.97;;;2.51;99.73
69524;BME280;56723;42.694;23.286;2022-11-28T09:31:14;95525.50;;;2.49;99.84
69524;BME280;56723;42.694;23.286;2022-11-28T09:33:42;95509.53;;;2.46;100.00
69524;BME280;56723;42.694;23.286;2022-11-28T09:36:12;95514.44;;;2.49;100.00
69524;BME280;56723;42.694;23.286;2022-11-28T09:38:39;95508.31;;;2.51;100.00
69524;BME280;56723;42.694;23.286;2022-11-28T09:43:54;95481.06;;;2.63;100.00
69524;BME280;56723;42.694;23.286;2022-11-28T09:46:27;95487.56;;;2.79;100.00
69524;BME280;56723;42.694;23.286;2022-11-28T09:48:57;95480.16;;;3.00;98.98
69524;BME280;56723;42.694;23.286;2022-11-28T09:54:16;95478.00;;;3.31;95.62
69524;BME280;56723;42.694;23.286;2022-11-28T09:56:47;95472.56;;;3.46;95.70
69524;BME280;56723;42.694;23.286;2022-11-28T09:59:26;95474.56;;;3.54;95.07
69524;BME280;56723;42.694;23.286;2022-11-28T10:05:00;95466.75;;;3.91;93.26
69524;BME280;56723;42.694;23.286;2022-11-28T10:15:47;95468.53;;;4.68;85.31
69524;BME280;56723;42.694;23.286;2022-11-28T10:18:37;95466.78;;;4.80;81.07
69524;BME280;56723;42.694;23.286;2022-11-28T10:21:33;95461.88;;;4.77;82.86
69524;BME280;56723;42.694;23.286;2022-11-28T10:24:16;95454.88;;;4.79;80.71
69524;BME280;56723;42.694;23.286;2022-11-28T10:26:48;95449.38;;;4.95;79.78
69524;BME280;56723;42.694;23.286;2022-11-28T10:29:28;95445.63;;;4.99;80.04
69524;BME280;56723;42.694;23.286;2022-11-28T10:32:00;95436.16;;;4.99;78.48
69524;BME280;56723;42.694;23.286;2022-11-28T10:35:00;95439.56;;;4.88;78.89
69524;BME280;56723;42.694;23.286;2022-11-28T10:37:33;95437.03;;;4.77;78.31
69524;BME280;56723;42.694;23.286;2022-11-28T10:40:24;95434.59;;;4.76;78.69
69524;BME280;56723;42.694;23.286;2022-11-28T10:43:05;95439.25;;;4.71;79.14
69524;BME280;56723;42.694;23.286;2022-11-28T10:48:39;95426.78;;;4.55;79.97
69524;BME280;56723;42.694;23.286;2022-11-28T10:51:22;95421.44;;;4.36;79.72
69524;BME280;56723;42.694;23.286;2022-11-28T10:59:19;95426.69;;;4.23;80.77
69524;BME280;56723;42.694;23.286;2022-11-28T11:01:49;95419.56;;;4.15;81.00
69524;BME280;56723;42.694;23.286;2022-11-28T11:04:19;95422.38;;;4.01;81.60
69524;BME280;56723;42.694;23.286;2022-11-28T11:09:52;95421.41;;;3.91;82.90
69524;BME280;56723;42.694;23.286;2022-11-28T11:12:27;95408.97;;;3.87;83.28
69524;BME280;56723;42.694;23.286;2022-11-28T11:14:57;95413.06;;;3.89;82.62
69524;BME280;56723;42.694;23.286;2022-11-28T11:17:32;95409.53;;;3.79;81.93
69524;BME280;56723;42.694;23.286;2022-11-28T11:23:11;95409.41;;;3.80;80.76
69524;BME280;56723;42.694;23.286;2022-11-28T11:28:39;95400.09;;;3.91;81.31
69524;BME280;56723;42.694;23.286;2022-11-28T11:31:27;95385.88;;;3.98;81.34
69524;BME280;56723;42.694;23.286;2022-11-28T11:34:02;95376.81;;;4.05;82.02
69524;BME280;56723;42.694;23.286;2022-11-28T11:36:34;95373.31;;;4.06;80.33
69524;BME280;56723;42.694;23.286;2022-11-28T11:41:43;95386.34;;;4.14;79.66
69524;BME280;56723;42.694;23.286;2022-11-28T11:49:45;95378.91;;;4.22;79.22
69524;BME280;56723;42.694;23.286;2022-11-28T11:54:57;95373.06;;;4.20;79.46
69524;BME280;56723;42.694;23.286;2022-11-28T11:57:30;95371.44;;;4.19;79.88
69524;BME280;56723;42.694;23.286;2022-11-28T12:00:14;95370.50;;;4.20;79.65
69524;BME280;56723;42.694;23.286;2022-11-28T12:03:02;95366.78;;;4.13;78.78
69524;BME280;56723;42.694;23.286;2022-11-28T12:05:43;95367.00;;;4.21;78.21
69524;BME280;56723;42.694;23.286;2022-11-28T12:08:48;95364.69;;;4.18;78.73
69524;BME280;56723;42.694;23.286;2022-11-28T12:11:23;95369.09;;;4.16;79.01
69524;BME280;56723;42.694;23.286;2022-11-28T12:13:52;95359.06;;;4.13;78.26
69524;BME280;56723;42.694;23.286;2022-11-28T12:16:34;95363.75;;;4.19;78.40
69524;BME280;56723;42.694;23.286;2022-11-28T12:25:00;95353.84;;;4.26;77.47
69524;BME280;56723;42.694;23.286;2022-11-28T12:33:23;95353.34;;;4.09;78.11
69524;BME280;56723;42.694;23.286;2022-11-28T12:36:13;95363.75;;;4.19;79.24
69524;BME280;56723;42.694;23.286;2022-11-28T12:46:48;95366.75;;;3.91;79.32
69524;BME280;56723;42.694;23.286;2022-11-28T12:54:48;95369.31;;;3.91;78.69
69524;BME280;56723;42.694;23.286;2022-11-28T12:57:45;95371.56;;;3.95;78.73
69524;BME280;56723;42.694;23.286;2022-11-28T13:00:22;95370.50;;;3.98;78.75
69524;BME280;56723;42.694;23.286;2022-11-28T13:16:52;95381.16;;;3.47;80.29
69524;BME280;56723;42.694;23.286;2022-11-28T13:19:48;95382.00;;;3.47;81.56
69524;BME280;56723;42.694;23.286;2022-11-28T13:22:24;95381.75;;;3.51;81.56
69524;BME280;56723;42.694;23.286;2022-11-28T13:25:06;95386.88;;;3.51;81.37
69524;BME280;56723;42.694;23.286;2022-11-28T13:27:40;95391.75;;;3.54;81.20
69524;BME280;56723;42.694;23.286;2022-11-28T13:30:18;95399.59;;;3.52;80.98
69524;BME280;56723;42.694;23.286;2022-11-28T13:32:55;95389.66;;;3.47;80.98
69524;BME280;56723;42.694;23.286;2022-11-28T13:35:27;95395.63;;;3.48;80.54
69524;BME280;56723;42.694;23.286;2022-11-28T13:38:01;95399.81;;;3.49;80.77
69524;BME280;56723;42.694;23.286;2022-11-28T13:41:01;95399.31;;;3.44;81.08
69524;BME280;56723;42.694;23.286;2022-11-28T13:43:50;95408.19;;;3.51;80.73
69524;BME280;56723;42.694;23.286;2022-11-28T13:46:21;95398.50;;;3.43;81.11
69524;BME280;56723;42.694;23.286;2022-11-28T13:48:59;95401.88;;;3.44;81.47
69524;BME280;56723;42.694;23.286;2022-11-28T13:51:46;95405.59;;;3.40;81.83
69524;BME280;56723;42.694;23.286;2022-11-28T13:59:28;95399.75;;;3.27;83.00
69524;BME280;56723;42.694;23.286;2022-11-28T14:02:02;95408.34;;;3.26;82.22
69524;BME280;56723;42.694;23.286;2022-11-28T14:04:31;95395.28;;;3.18;82.13
69524;BME280;56723;42.694;23.286;2022-11-28T14:07:04;95406.22;;;3.20;81.94
69524;BME280;56723;42.694;23.286;2022-11-28T14:09:47;95402.69;;;3.09;82.39
69524;BME280;56723;42.694;23.286;2022-11-28T14:26:00;95425.91;;;2.95;84.20
69524;BME280;56723;42.694;23.286;2022-11-28T14:28:34;95427.56;;;2.96;84.66
69524;BME280;56723;42.694;23.286;2022-11-28T14:33:39;95432.22;;;3.02;85.09
69524;BME280;56723;42.694;23.286;2022-11-28T14:36:34;95423.41;;;3.06;85.20
69524;BME280;56723;42.694;23.286;2022-11-28T14:47:27;95426.19;;;3.03;85.52
69524;BME280;56723;42.694;23.286;2022-11-28T14:52:40;95411.91;;;2.88;85.05
69524;BME280;56723;42.694;23.286;2022-11-28T14:57:58;95408.53;;;2.88;86.06
69524;BME280;56723;42.694;23.286;2022-11-28T15:00:47;95407.72;;;2.87;86.17
69524;BME280;56723;42.694;23.286;2022-11-28T15:06:24;95407.00;;;2.85;85.94
69524;BME280;56723;42.694;23.286;2022-11-28T15:14:21;95412.50;;;2.68;86.19
69524;BME280;56723;42.694;23.286;2022-11-28T15:16:51;95409.72;;;2.71;85.64
69524;BME280;56723;42.694;23.286;2022-11-28T15:21:54;95404.81;;;2.68;87.03
69524;BME280;56723;42.694;23.286;2022-11-28T15:29:38;95395.00;;;2.62;87.44
69524;BME280;56723;42.694;23.286;2022-11-28T15:32:05;95404.31;;;2.63;87.71
69524;BME280;56723;42.694;23.286;2022-11-28T15:34:35;95401.41;;;2.56;88.46
69524;BME280;56723;42.694;23.286;2022-11-28T15:37:23;95402.94;;;2.59;87.76
69524;BME280;56723;42.694;23.286;2022-11-28T15:39:53;95402.31;;;2.55;88.33
69524;BME280;56723;42.694;23.286;2022-11-28T15:42:24;95408.25;;;2.56;88.82
69524;BME280;56723;42.694;23.286;2022-11-28T15:45:04;95395.06;;;2.49;89.15
69524;BME280;56723;42.694;23.286;2022-11-28T15:47:32;95398.03;;;2.56;88.80
69524;BME280;56723;42.694;23.286;2022-11-28T15:50:24;95400.88;;;2.51;89.50
69524;BME280;56723;42.694;23.286;2022-11-28T15:55:22;95402.94;;;2.59;89.75
69524;BME280;56723;42.694;23.286;2022-11-28T15:57:50;95400.47;;;2.57;88.82
69524;BME280;56723;42.694;23.286;2022-11-28T16:00:19;95397.81;;;2.59;88.90
69524;BME280;56723;42.694;23.286;2022-11-28T16:02:48;95392.19;;;2.54;88.38
69524;BME280;56723;42.694;23.286;2022-11-28T16:05:20;95385.44;;;2.53;88.74
69524;BME280;56723;42.694;23.286;2022-11-28T16:07:50;95384.50;;;2.54;88.73
69524;BME280;56723;42.694;23.286;2022-11-28T16:10:43;95388.00;;;2.53;88.26
69524;BME280;56723;42.694;23.286;2022-11-28T16:13:14;95382.88;;;2.53;88.12
69524;BME280;56723;42.694;23.286;2022-11-28T16:15:45;95378.19;;;2.47;88.12
69524;BME280;56723;42.694;23.286;2022-11-28T16:18:16;95379.63;;;2.51;88.77
69524;BME280;56723;42.694;23.286;2022-11-28T16:20:43;95380.53;;;2.50;88.24
69524;BME280;56723;42.694;23.286;2022-11-28T16:23:26;95384.94;;;2.48;89.02
69524;BME280;56723;42.694;23.286;2022-11-28T16:28:59;95385.53;;;2.51;88.73
69524;BME280;56723;42.694;23.286;2022-11-28T16:31:27;95385.66;;;2.50;88.75
69524;BME280;56723;42.694;23.286;2022-11-28T16:33:55;95394.13;;;2.50;89.46
69524;BME280;56723;42.694;23.286;2022-11-28T16:39:13;95382.28;;;2.49;89.46
69524;BME280;56723;42.694;23.286;2022-11-28T16:41:47;95387.28;;;2.51;89.57
69524;BME280;56723;42.694;23.286;2022-11-28T16:44:18;95392.50;;;2.49;89.74
69524;BME280;56723;42.694;23.286;2022-11-28T16:46:52;95387.19;;;2.52;89.91
69524;BME280;56723;42.694;23.286;2022-11-28T16:49:36;95384.50;;;2.54;90.58
69524;BME280;56723;42.694;23.286;2022-11-28T16:54:56;95382.06;;;2.52;90.78
69524;BME280;56723;42.694;23.286;2022-11-28T16:57:24;95378.38;;;2.56;90.65
69524;BME280;56723;42.694;23.286;2022-11-28T17:00:10;95385.44;;;2.53;90.39
69524;BME280;56723;42.694;23.286;2022-11-28T17:02:37;95383.69;;;2.53;91.21
69524;BME280;56723;42.694;23.286;2022-11-28T17:05:04;95371.72;;;2.54;90.88
69524;BME280;56723;42.694;23.286;2022-11-28T17:07:31;95381.75;;;2.57;90.47
69524;BME280;56723;42.694;23.286;2022-11-28T17:09:58;95372.66;;;2.53;90.84
69524;BME280;56723;42.694;23.286;2022-11-28T17:12:27;95378.28;;;2.58;90.41
69524;BME280;56723;42.694;23.286;2022-11-28T17:14:55;95378.38;;;2.56;91.05
69524;BME280;56723;42.694;23.286;2022-11-28T17:17:24;95372.22;;;2.59;90.53
69524;BME280;56723;42.694;23.286;2022-11-28T17:19:51;95370.34;;;2.61;90.96
69524;BME280;56723;42.694;23.286;2022-11-28T17:22:23;95366.06;;;2.61;90.74
69524;BME280;56723;42.694;23.286;2022-11-28T17:24:55;95357.34;;;2.64;91.18
69524;BME280;56723;42.694;23.286;2022-11-28T17:27:23;95353.88;;;2.65;90.43
69524;BME280;56723;42.694;23.286;2022-11-28T17:29:50;95358.06;;;2.66;91.03
69524;BME280;56723;42.694;23.286;2022-11-28T17:32:17;95368.09;;;2.69;90.24
69524;BME280;56723;42.694;23.286;2022-11-28T17:34:45;95361.94;;;2.71;90.25
69524;BME280;56723;42.694;23.286;2022-11-28T17:37:12;95356.00;;;2.71;90.50
69524;BME280;56723;42.694;23.286;2022-11-28T17:39:39;95353.22;;;2.74;90.92
69524;BME280;56723;42.694;23.286;2022-11-28T17:42:26;95349.97;;;2.72;90.78
69524;BME280;56723;42.694;23.286;2022-11-28T17:44:53;95359.06;;;2.76;90.03
69524;BME280;56723;42.694;23.286;2022-11-28T17:47:20;95355.56;;;2.77;88.44
69524;BME280;56723;42.694;23.286;2022-11-28T17:49:49;95356.38;;;2.77;88.98
69524;BME280;56723;42.694;23.286;2022-11-28T17:52:17;95359.97;;;2.75;88.47
69524;BME280;56723;42.694;23.286;2022-11-28T17:54:45;95342.06;;;2.75;88.93
69524;BME280;56723;42.694;23.286;2022-11-28T17:57:13;95348.56;;;2.79;88.71
69524;BME280;56723;42.694;23.286;2022-11-28T17:59:40;95346.72;;;2.81;88.27
69524;BME280;56723;42.694;23.286;2022-11-28T18:02:09;95351.84;;;2.81;86.91
69524;BME280;56723;42.694;23.286;2022-11-28T18:04:36;95336.84;;;2.76;86.06
69524;BME280;56723;42.694;23.286;2022-11-28T18:07:03;95343.47;;;2.79;86.41
69524;BME280;56723;42.694;23.286;2022-11-28T18:09:32;95348.56;;;2.79;86.29
69524;BME280;56723;42.694;23.286;2022-11-28T18:11:59;95335.09;;;2.77;86.23
69524;BME280;56723;42.694;23.286;2022-11-28T18:14:26;95350.91;;;2.82;86.47
69524;BME280;56723;42.694;23.286;2022-11-28T18:16:53;95340.09;;;2.78;86.72
69524;BME280;56723;42.694;23.286;2022-11-28T18:19:22;95341.72;;;2.79;87.01
69524;BME280;56723;42.694;23.286;2022-11-28T18:21:51;95346.97;;;2.78;88.05
69524;BME280;56723;42.694;23.286;2022-11-28T18:24:21;95364.75;;;2.79;88.24
69524;BME280;56723;42.694;23.286;2022-11-28T18:26:48;95358.94;;;2.77;89.15
69524;BME280;56723;42.694;23.286;2022-11-28T18:29:15;95364.19;;;2.76;89.96
69524;BME280;56723;42.694;23.286;2022-11-28T18:31:45;95354.38;;;2.70;90.13
69524;BME280;56723;42.694;23.286;2022-11-28T18:34:14;95364.88;;;2.78;89.73
69524;BME280;56723;42.694;23.286;2022-11-28T18:36:47;95365.81;;;2.77;88.34
69524;BME280;56723;42.694;23.286;2022-11-28T18:39:15;95364.19;;;2.76;88.88
69524;BME280;56723;42.694;23.286;2022-11-28T18:41:43;95361.84;;;2.73;90.86
69524;BME280;56723;42.694;23.286;2022-11-28T18:44:10;95369.28;;;2.76;90.63
69524;BME280;56723;42.694;23.286;2022-11-28T18:46:37;95369.03;;;2.79;91.28
69524;BME280;56723;42.694;23.286;2022-11-28T18:49:06;95345.44;;;2.75;91.20
69524;BME280;56723;42.694;23.286;2022-11-28T18:51:34;95362.53;;;2.75;90.45
69524;BME280;56723;42.694;23.286;2022-11-28T18:54:03;95356.94;;;2.70;89.86
69524;BME280;56723;42.694;23.286;2022-11-28T18:56:32;95342.94;;;2.63;88.34
69524;BME280;56723;42.694;23.286;2022-11-28T18:58:59;95351.19;;;2.66;87.90
69524;BME280;56723;42.694;23.286;2022-11-28T19:01:30;95353.66;;;2.68;87.56
69524;BME280;56723;42.694;23.286;2022-11-28T19:04:06;95351.09;;;2.68;87.02
69524;BME280;56723;42.694;23.286;2022-11-28T19:06:35;95360.41;;;2.69;86.95
69524;BME280;56723;42.694;23.286;2022-11-28T19:09:04;95355.41;;;2.67;86.28
69524;BME280;56723;42.694;23.286;2022-11-28T19:11:33;95354.78;;;2.64;86.28
69524;BME280;56723;42.694;23.286;2022-11-28T19:14:00;95351.06;;;2.57;86.72
69524;BME280;56723;42.694;23.286;2022-11-28T19:16:30;95357.00;;;2.57;86.28
69524;BME280;56723;42.694;23.286;2022-11-28T19:18:59;95355.13;;;2.59;86.26
69524;BME280;56723;42.694;23.286;2022-11-28T19:21:31;95352.09;;;2.54;86.25
69524;BME280;56723;42.694;23.286;2022-11-28T19:24:00;95354.63;;;2.54;85.89
69524;BME280;56723;42.694;23.286;2022-11-28T19:26:31;95357.31;;;2.53;85.90
